This is the latest recevied weather packets stored in our database for station/object K2NV. If no packets are shown the sender has not sent any weather packets the latest 1 day(s).
| Time | Temp. | Humidity | Pressure | Rain* | Wind** | Luminosity | Snow |
|---|---|---|---|---|---|---|---|
| 1836274601 | 11.67° C | 80% | 1020.9 hPa | 0 mm | 0 m/s | - | - |
| 1836274451 | 11.67° C | 81% | 1021 hPa | 0 mm | 0 m/s | - | - |
| 1836274300 | 11.67° C | 80% | 1020.8 hPa | 0 mm | 0 m/s | - | - |
| 1836274150 | 11.67° C | 81% | 1020.9 hPa | 0 mm | 0 m/s | - | - |
| 1836274035 | 11.67° C | 80% | 1020.8 hPa | 0 mm | 0 m/s | - | - |
| 1836274001 | 11.67° C | 80% | 1020.8 hPa | 0 mm | 0 m/s | - | - |
| 1778051356 | 8.89° C | 93% | 1006.8 hPa | 0.51 mm | 0 m/s | - | - |
| 1778051055 | 8.89° C | 93% | 1006.9 hPa | 0.25 mm | 0 m/s | - | - |
| 1778050756 | 8.33° C | 93% | 1006.9 hPa | 0.25 mm | 0 m/s | - | - |
| 1778050456 | 8.33° C | 93% | 1006.9 hPa | 0.51 mm | 0 m/s | - | - |
| 1778050156 | 8.33° C | 93% | 1006.8 hPa | 0.51 mm | 0 m/s | - | - |
| 1778049855 | 8.33° C | 93% | 1007.1 hPa | 0.51 mm | 0 m/s | - | - |
| 1778049556 | 8.33° C | 93% | 1007.1 hPa | 0.51 mm | 0 m/s | - | - |
| 1778049256 | 8.33° C | 93% | 1007 hPa | 0.25 mm | 0 m/s | - | - |
| 1778048656 | 8.89° C | 93% | 1007 hPa | 0.25 mm | 0 m/s | - | - |
| 1778048356 | 8.89° C | 93% | 1007.3 hPa | 0.25 mm | 0 m/s | - | - |
| 1778048055 | 8.89° C | 93% | 1007.2 hPa | 0.51 mm | 0 m/s | - | - |
| 1778047756 | 8.89° C | 93% | 1007 hPa | 0.51 mm | 0 m/s | - | - |
| 1778047456 | 8.89° C | 93% | 1006.9 hPa | 0.51 mm | 0 m/s | - | - |
| 1778047158 | 8.89° C | 93% | 1006.9 hPa | 0.76 mm | 0 m/s | - | - |
| 1778046856 | 8.89° C | 93% | 1007.2 hPa | 0.51 mm | 0 m/s | - | - |
| 1778046256 | 8.89° C | 93% | 1007 hPa | 0.76 mm | 0 m/s | - | - |
| 1778045957 | 8.89° C | 93% | 1007.3 hPa | 0.76 mm | 0 m/s | - | - |
| 1778045657 | 8.89° C | 93% | 1007.5 hPa | 0.76 mm | 0 m/s | - | - |
| 1778045355 | 8.89° C | 93% | 1007.5 hPa | 0.76 mm | 0 m/s | - | - |
* Rain latest hour (hover to see other rain measurements)
** Current wind speed in m/s (hover to see current wind gust speed)